sensor_id;sensor_type;location;lat;lon;timestamp;P1;durP1;ratioP1;P2;durP2;ratioP2
74789;SDS011;63318;52.406;13.416;2023-06-22T00:02:26;16.00;;;12.30;;
74789;SDS011;63318;52.406;13.416;2023-06-22T00:04:54;15.40;;;11.90;;
74789;SDS011;63318;52.406;13.416;2023-06-22T00:07:22;16.80;;;12.20;;
74789;SDS011;63318;52.406;13.416;2023-06-22T00:09:50;15.40;;;11.80;;
74789;SDS011;63318;52.406;13.416;2023-06-22T00:12:19;13.80;;;11.20;;
74789;SDS011;63318;52.406;13.416;2023-06-22T00:14:47;14.80;;;12.50;;
74789;SDS011;63318;52.406;13.416;2023-06-22T00:17:15;18.00;;;11.50;;
74789;SDS011;63318;52.406;13.416;2023-06-22T00:19:43;15.10;;;11.00;;
74789;SDS011;63318;52.406;13.416;2023-06-22T00:22:14;14.30;;;11.00;;
74789;SDS011;63318;52.406;13.416;2023-06-22T00:24:42;14.30;;;11.50;;
74789;SDS011;63318;52.406;13.416;2023-06-22T00:27:10;16.70;;;11.80;;
74789;SDS011;63318;52.406;13.416;2023-06-22T00:29:39;14.90;;;11.00;;
74789;SDS011;63318;52.406;13.416;2023-06-22T00:32:07;15.30;;;11.20;;
74789;SDS011;63318;52.406;13.416;2023-06-22T00:34:35;16.00;;;11.80;;
74789;SDS011;63318;52.406;13.416;2023-06-22T00:37:04;15.60;;;11.20;;
74789;SDS011;63318;52.406;13.416;2023-06-22T00:39:32;14.80;;;11.60;;
74789;SDS011;63318;52.406;13.416;2023-06-22T00:42:00;17.70;;;10.90;;
74789;SDS011;63318;52.406;13.416;2023-06-22T00:44:29;12.90;;;10.20;;
74789;SDS011;63318;52.406;13.416;2023-06-22T00:46:57;14.10;;;10.40;;
74789;SDS011;63318;52.406;13.416;2023-06-22T00:49:26;15.00;;;10.90;;
74789;SDS011;63318;52.406;13.416;2023-06-22T00:51:54;13.80;;;10.70;;
74789;SDS011;63318;52.406;13.416;2023-06-22T00:54:24;14.70;;;10.50;;
74789;SDS011;63318;52.406;13.416;2023-06-22T00:56:53;12.70;;;10.10;;
74789;SDS011;63318;52.406;13.416;2023-06-22T00:59:21;12.40;;;9.70;;
74789;SDS011;63318;52.406;13.416;2023-06-22T01:01:49;17.40;;;10.20;;
74789;SDS011;63318;52.406;13.416;2023-06-22T01:04:18;13.90;;;10.00;;
74789;SDS011;63318;52.406;13.416;2023-06-22T01:06:47;14.10;;;11.00;;
74789;SDS011;63318;52.406;13.416;2023-06-22T01:09:27;12.50;;;10.00;;
74789;SDS011;63318;52.406;13.416;2023-06-22T01:12:00;13.10;;;9.90;;
74789;SDS011;63318;52.406;13.416;2023-06-22T01:14:35;13.20;;;10.00;;
74789;SDS011;63318;52.406;13.416;2023-06-22T01:17:08;16.60;;;10.30;;
74789;SDS011;63318;52.406;13.416;2023-06-22T01:19:39;12.80;;;10.10;;
74789;SDS011;63318;52.406;13.416;2023-06-22T01:22:12;11.60;;;9.50;;
74789;SDS011;63318;52.406;13.416;2023-06-22T01:24:45;14.20;;;9.80;;
74789;SDS011;63318;52.406;13.416;2023-06-22T01:27:26;13.90;;;9.50;;
74789;SDS011;63318;52.406;13.416;2023-06-22T01:32:27;13.50;;;9.20;;
74789;SDS011;63318;52.406;13.416;2023-06-22T01:34:56;13.80;;;10.20;;
74789;SDS011;63318;52.406;13.416;2023-06-22T01:37:27;14.20;;;9.90;;
74789;SDS011;63318;52.406;13.416;2023-06-22T01:39:56;14.10;;;9.70;;
74789;SDS011;63318;52.406;13.416;2023-06-22T01:42:25;14.10;;;9.00;;
74789;SDS011;63318;52.406;13.416;2023-06-22T01:44:53;14.00;;;9.60;;
74789;SDS011;63318;52.406;13.416;2023-06-22T01:47:23;13.50;;;9.90;;
74789;SDS011;63318;52.406;13.416;2023-06-22T01:49:52;14.20;;;9.70;;
74789;SDS011;63318;52.406;13.416;2023-06-22T01:52:21;12.50;;;9.90;;
74789;SDS011;63318;52.406;13.416;2023-06-22T01:54:49;16.20;;;10.10;;
74789;SDS011;63318;52.406;13.416;2023-06-22T01:57:17;12.20;;;10.00;;
74789;SDS011;63318;52.406;13.416;2023-06-22T01:59:48;14.10;;;10.20;;
74789;SDS011;63318;52.406;13.416;2023-06-22T02:02:20;18.90;;;10.20;;
74789;SDS011;63318;52.406;13.416;2023-06-22T02:04:52;13.30;;;10.60;;
74789;SDS011;63318;52.406;13.416;2023-06-22T02:07:23;13.70;;;10.20;;
74789;SDS011;63318;52.406;13.416;2023-06-22T02:09:59;15.90;;;11.30;;
74789;SDS011;63318;52.406;13.416;2023-06-22T02:12:28;13.70;;;10.70;;
74789;SDS011;63318;52.406;13.416;2023-06-22T02:14:58;14.10;;;11.10;;
74789;SDS011;63318;52.406;13.416;2023-06-22T02:17:27;14.90;;;10.50;;
74789;SDS011;63318;52.406;13.416;2023-06-22T02:19:56;14.00;;;10.20;;
74789;SDS011;63318;52.406;13.416;2023-06-22T02:22:24;15.50;;;11.70;;
74789;SDS011;63318;52.406;13.416;2023-06-22T02:24:52;15.80;;;12.70;;
74789;SDS011;63318;52.406;13.416;2023-06-22T02:27:20;14.40;;;11.30;;
74789;SDS011;63318;52.406;13.416;2023-06-22T02:29:49;15.70;;;12.70;;
74789;SDS011;63318;52.406;13.416;2023-06-22T02:32:17;14.80;;;11.30;;
74789;SDS011;63318;52.406;13.416;2023-06-22T02:34:45;14.60;;;10.90;;
74789;SDS011;63318;52.406;13.416;2023-06-22T02:37:13;14.10;;;10.90;;
74789;SDS011;63318;52.406;13.416;2023-06-22T02:39:42;15.50;;;11.90;;
74789;SDS011;63318;52.406;13.416;2023-06-22T02:42:10;16.20;;;11.00;;
74789;SDS011;63318;52.406;13.416;2023-06-22T02:44:38;14.50;;;12.20;;
74789;SDS011;63318;52.406;13.416;2023-06-22T02:47:07;17.00;;;12.60;;
74789;SDS011;63318;52.406;13.416;2023-06-22T02:49:35;16.20;;;11.70;;
74789;SDS011;63318;52.406;13.416;2023-06-22T02:52:04;17.30;;;11.40;;
74789;SDS011;63318;52.406;13.416;2023-06-22T02:54:32;16.10;;;12.10;;
74789;SDS011;63318;52.406;13.416;2023-06-22T02:57:00;16.10;;;12.10;;
74789;SDS011;63318;52.406;13.416;2023-06-22T02:59:29;17.70;;;12.30;;
74789;SDS011;63318;52.406;13.416;2023-06-22T03:01:57;17.20;;;12.70;;
74789;SDS011;63318;52.406;13.416;2023-06-22T03:04:25;17.20;;;12.70;;
74789;SDS011;63318;52.406;13.416;2023-06-22T03:06:53;16.20;;;12.10;;
74789;SDS011;63318;52.406;13.416;2023-06-22T03:09:22;16.30;;;12.20;;
74789;SDS011;63318;52.406;13.416;2023-06-22T03:11:50;16.10;;;11.70;;
74789;SDS011;63318;52.406;13.416;2023-06-22T03:14:18;16.30;;;12.20;;
74789;SDS011;63318;52.406;13.416;2023-06-22T03:16:47;15.10;;;12.20;;
74789;SDS011;63318;52.406;13.416;2023-06-22T03:19:15;15.30;;;12.20;;
74789;SDS011;63318;52.406;13.416;2023-06-22T03:21:43;17.60;;;13.10;;
74789;SDS011;63318;52.406;13.416;2023-06-22T03:24:11;16.10;;;13.20;;
74789;SDS011;63318;52.406;13.416;2023-06-22T03:26:40;19.50;;;14.10;;
74789;SDS011;63318;52.406;13.416;2023-06-22T03:29:08;18.80;;;13.20;;
74789;SDS011;63318;52.406;13.416;2023-06-22T03:31:36;16.40;;;13.40;;
74789;SDS011;63318;52.406;13.416;2023-06-22T03:34:04;18.80;;;13.60;;
74789;SDS011;63318;52.406;13.416;2023-06-22T03:36:33;18.30;;;13.50;;
74789;SDS011;63318;52.406;13.416;2023-06-22T03:39:01;16.00;;;13.30;;
74789;SDS011;63318;52.406;13.416;2023-06-22T03:41:29;16.00;;;13.00;;
74789;SDS011;63318;52.406;13.416;2023-06-22T03:43:58;20.50;;;13.30;;
74789;SDS011;63318;52.406;13.416;2023-06-22T03:46:26;17.80;;;13.60;;
74789;SDS011;63318;52.406;13.416;2023-06-22T03:48:54;16.80;;;13.50;;
74789;SDS011;63318;52.406;13.416;2023-06-22T03:51:23;21.80;;;13.80;;
74789;SDS011;63318;52.406;13.416;2023-06-22T03:53:51;17.70;;;13.20;;
74789;SDS011;63318;52.406;13.416;2023-06-22T03:56:19;18.70;;;13.70;;
74789;SDS011;63318;52.406;13.416;2023-06-22T03:58:47;18.60;;;13.80;;
74789;SDS011;63318;52.406;13.416;2023-06-22T04:01:16;18.80;;;13.60;;
74789;SDS011;63318;52.406;13.416;2023-06-22T04:03:44;17.70;;;14.40;;
74789;SDS011;63318;52.406;13.416;2023-06-22T04:06:13;19.50;;;14.80;;
74789;SDS011;63318;52.406;13.416;2023-06-22T04:08:41;18.60;;;13.20;;
74789;SDS011;63318;52.406;13.416;2023-06-22T04:11:11;18.10;;;13.20;;
74789;SDS011;63318;52.406;13.416;2023-06-22T04:13:39;19.20;;;13.60;;
74789;SDS011;63318;52.406;13.416;2023-06-22T04:16:08;19.20;;;14.20;;
74789;SDS011;63318;52.406;13.416;2023-06-22T04:18:36;18.30;;;14.70;;
74789;SDS011;63318;52.406;13.416;2023-06-22T04:21:04;20.30;;;15.20;;
74789;SDS011;63318;52.406;13.416;2023-06-22T04:23:33;17.40;;;13.40;;
74789;SDS011;63318;52.406;13.416;2023-06-22T04:26:01;21.00;;;14.90;;
74789;SDS011;63318;52.406;13.416;2023-06-22T04:28:29;17.90;;;13.80;;
74789;SDS011;63318;52.406;13.416;2023-06-22T04:30:57;16.60;;;13.20;;
74789;SDS011;63318;52.406;13.416;2023-06-22T04:33:25;21.60;;;14.30;;
74789;SDS011;63318;52.406;13.416;2023-06-22T04:35:54;19.40;;;14.90;;
74789;SDS011;63318;52.406;13.416;2023-06-22T04:38:22;16.60;;;12.70;;
74789;SDS011;63318;52.406;13.416;2023-06-22T04:40:50;17.00;;;13.20;;
74789;SDS011;63318;52.406;13.416;2023-06-22T04:43:19;15.60;;;12.30;;
74789;SDS011;63318;52.406;13.416;2023-06-22T04:45:47;16.40;;;12.60;;
74789;SDS011;63318;52.406;13.416;2023-06-22T04:48:15;16.30;;;12.20;;
74789;SDS011;63318;52.406;13.416;2023-06-22T04:50:44;20.30;;;12.70;;
74789;SDS011;63318;52.406;13.416;2023-06-22T04:53:12;17.50;;;12.50;;
74789;SDS011;63318;52.406;13.416;2023-06-22T04:55:40;16.00;;;12.40;;
74789;SDS011;63318;52.406;13.416;2023-06-22T04:58:08;17.30;;;12.00;;
74789;SDS011;63318;52.406;13.416;2023-06-22T05:00:37;15.80;;;12.70;;
74789;SDS011;63318;52.406;13.416;2023-06-22T05:03:05;16.50;;;12.10;;
74789;SDS011;63318;52.406;13.416;2023-06-22T05:05:33;15.50;;;11.60;;
74789;SDS011;63318;52.406;13.416;2023-06-22T05:08:01;15.30;;;11.60;;
74789;SDS011;63318;52.406;13.416;2023-06-22T05:10:30;14.80;;;11.40;;
74789;SDS011;63318;52.406;13.416;2023-06-22T05:12:58;14.00;;;10.80;;
74789;SDS011;63318;52.406;13.416;2023-06-22T05:15:26;13.90;;;10.30;;
74789;SDS011;63318;52.406;13.416;2023-06-22T05:17:54;13.50;;;9.80;;
74789;SDS011;63318;52.406;13.416;2023-06-22T05:20:23;11.80;;;10.40;;
74789;SDS011;63318;52.406;13.416;2023-06-22T05:22:51;11.80;;;9.40;;
74789;SDS011;63318;52.406;13.416;2023-06-22T05:25:19;12.60;;;8.90;;
74789;SDS011;63318;52.406;13.416;2023-06-22T05:27:48;13.10;;;10.50;;
74789;SDS011;63318;52.406;13.416;2023-06-22T05:30:16;11.90;;;9.20;;
74789;SDS011;63318;52.406;13.416;2023-06-22T05:32:44;15.20;;;11.40;;
74789;SDS011;63318;52.406;13.416;2023-06-22T05:35:12;16.20;;;10.00;;
74789;SDS011;63318;52.406;13.416;2023-06-22T05:37:41;15.20;;;9.90;;
74789;SDS011;63318;52.406;13.416;2023-06-22T05:40:10;10.70;;;8.40;;
74789;SDS011;63318;52.406;13.416;2023-06-22T05:42:39;10.90;;;8.20;;
74789;SDS011;63318;52.406;13.416;2023-06-22T05:45:08;9.70;;;7.50;;
74789;SDS011;63318;52.406;13.416;2023-06-22T05:47:37;11.20;;;7.90;;
74789;SDS011;63318;52.406;13.416;2023-06-22T05:50:06;9.60;;;7.50;;
74789;SDS011;63318;52.406;13.416;2023-06-22T05:52:35;11.10;;;7.40;;
74789;SDS011;63318;52.406;13.416;2023-06-22T05:55:04;11.40;;;7.30;;
74789;SDS011;63318;52.406;13.416;2023-06-22T05:57:32;9.80;;;6.80;;
74789;SDS011;63318;52.406;13.416;2023-06-22T06:00:01;10.70;;;6.90;;
74789;SDS011;63318;52.406;13.416;2023-06-22T06:02:29;11.20;;;7.10;;
74789;SDS011;63318;52.406;13.416;2023-06-22T06:04:58;9.10;;;6.90;;
74789;SDS011;63318;52.406;13.416;2023-06-22T06:07:26;8.00;;;6.70;;
74789;SDS011;63318;52.406;13.416;2023-06-22T06:09:54;8.80;;;6.10;;
74789;SDS011;63318;52.406;13.416;2023-06-22T06:12:22;9.60;;;6.30;;
74789;SDS011;63318;52.406;13.416;2023-06-22T06:14:51;7.20;;;5.60;;
74789;SDS011;63318;52.406;13.416;2023-06-22T06:17:20;9.10;;;5.20;;
74789;SDS011;63318;52.406;13.416;2023-06-22T06:19:48;10.60;;;5.90;;
74789;SDS011;63318;52.406;13.416;2023-06-22T06:22:16;7.00;;;4.30;;
74789;SDS011;63318;52.406;13.416;2023-06-22T06:24:45;6.00;;;4.30;;
74789;SDS011;63318;52.406;13.416;2023-06-22T06:27:14;7.60;;;4.60;;
74789;SDS011;63318;52.406;13.416;2023-06-22T06:29:42;6.70;;;3.90;;
74789;SDS011;63318;52.406;13.416;2023-06-22T06:32:10;6.40;;;4.30;;
74789;SDS011;63318;52.406;13.416;2023-06-22T06:34:39;9.40;;;4.80;;
74789;SDS011;63318;52.406;13.416;2023-06-22T06:37:07;7.20;;;4.50;;
74789;SDS011;63318;52.406;13.416;2023-06-22T06:39:35;6.90;;;3.70;;
74789;SDS011;63318;52.406;13.416;2023-06-22T06:42:05;7.10;;;4.10;;
74789;SDS011;63318;52.406;13.416;2023-06-22T06:44:34;6.90;;;4.30;;
74789;SDS011;63318;52.406;13.416;2023-06-22T06:47:02;8.10;;;4.50;;
74789;SDS011;63318;52.406;13.416;2023-06-22T06:49:33;6.60;;;3.80;;
74789;SDS011;63318;52.406;13.416;2023-06-22T06:52:04;6.30;;;4.00;;
74789;SDS011;63318;52.406;13.416;2023-06-22T06:54:35;8.00;;;3.80;;
74789;SDS011;63318;52.406;13.416;2023-06-22T06:57:04;5.50;;;3.90;;
74789;SDS011;63318;52.406;13.416;2023-06-22T06:59:32;7.20;;;3.80;;
74789;SDS011;63318;52.406;13.416;2023-06-22T07:02:01;6.30;;;3.60;;
74789;SDS011;63318;52.406;13.416;2023-06-22T07:04:30;4.80;;;3.20;;
74789;SDS011;63318;52.406;13.416;2023-06-22T07:07:00;6.80;;;4.20;;
74789;SDS011;63318;52.406;13.416;2023-06-22T07:09:29;5.40;;;3.60;;
74789;SDS011;63318;52.406;13.416;2023-06-22T07:11:58;5.60;;;3.60;;
74789;SDS011;63318;52.406;13.416;2023-06-22T07:14:26;9.50;;;4.10;;
74789;SDS011;63318;52.406;13.416;2023-06-22T07:16:55;5.10;;;3.30;;
74789;SDS011;63318;52.406;13.416;2023-06-22T07:19:25;6.30;;;3.50;;
74789;SDS011;63318;52.406;13.416;2023-06-22T07:21:54;5.20;;;3.70;;
74789;SDS011;63318;52.406;13.416;2023-06-22T07:24:23;6.00;;;3.50;;
74789;SDS011;63318;52.406;13.416;2023-06-22T07:26:52;6.90;;;3.40;;
74789;SDS011;63318;52.406;13.416;2023-06-22T07:29:20;5.90;;;3.10;;
74789;SDS011;63318;52.406;13.416;2023-06-22T07:31:49;6.70;;;3.20;;
74789;SDS011;63318;52.406;13.416;2023-06-22T07:34:18;5.70;;;3.30;;
74789;SDS011;63318;52.406;13.416;2023-06-22T07:36:47;8.50;;;3.80;;
74789;SDS011;63318;52.406;13.416;2023-06-22T07:39:16;7.90;;;3.90;;
74789;SDS011;63318;52.406;13.416;2023-06-22T07:41:45;7.10;;;3.40;;
74789;SDS011;63318;52.406;13.416;2023-06-22T07:44:14;7.50;;;3.50;;
74789;SDS011;63318;52.406;13.416;2023-06-22T07:46:43;6.80;;;2.90;;
74789;SDS011;63318;52.406;13.416;2023-06-22T07:49:11;4.40;;;3.10;;
74789;SDS011;63318;52.406;13.416;2023-06-22T07:51:40;6.50;;;3.50;;
74789;SDS011;63318;52.406;13.416;2023-06-22T07:54:10;5.90;;;2.90;;
74789;SDS011;63318;52.406;13.416;2023-06-22T07:56:38;5.70;;;3.10;;
74789;SDS011;63318;52.406;13.416;2023-06-22T07:59:07;4.80;;;2.60;;
74789;SDS011;63318;52.406;13.416;2023-06-22T08:01:35;4.70;;;3.10;;
74789;SDS011;63318;52.406;13.416;2023-06-22T08:04:03;5.50;;;3.20;;
74789;SDS011;63318;52.406;13.416;2023-06-22T08:06:31;6.20;;;3.00;;
74789;SDS011;63318;52.406;13.416;2023-06-22T08:09:00;5.80;;;3.10;;
74789;SDS011;63318;52.406;13.416;2023-06-22T08:11:28;4.80;;;2.60;;
74789;SDS011;63318;52.406;13.416;2023-06-22T08:13:57;4.60;;;2.80;;
74789;SDS011;63318;52.406;13.416;2023-06-22T08:16:25;4.40;;;2.70;;
74789;SDS011;63318;52.406;13.416;2023-06-22T08:18:53;5.70;;;2.80;;
74789;SDS011;63318;52.406;13.416;2023-06-22T08:21:21;5.00;;;2.40;;
74789;SDS011;63318;52.406;13.416;2023-06-22T08:23:50;4.10;;;2.50;;
74789;SDS011;63318;52.406;13.416;2023-06-22T08:26:18;6.70;;;2.90;;
74789;SDS011;63318;52.406;13.416;2023-06-22T08:28:46;6.10;;;2.90;;
74789;SDS011;63318;52.406;13.416;2023-06-22T08:31:15;5.00;;;2.70;;
74789;SDS011;63318;52.406;13.416;2023-06-22T08:33:43;4.70;;;2.70;;
74789;SDS011;63318;52.406;13.416;2023-06-22T08:36:11;4.10;;;2.40;;
74789;SDS011;63318;52.406;13.416;2023-06-22T08:38:40;4.20;;;2.30;;
74789;SDS011;63318;52.406;13.416;2023-06-22T08:41:08;6.40;;;2.70;;
74789;SDS011;63318;52.406;13.416;2023-06-22T08:43:36;5.40;;;2.90;;
74789;SDS011;63318;52.406;13.416;2023-06-22T08:46:04;4.80;;;2.20;;
74789;SDS011;63318;52.406;13.416;2023-06-22T08:48:33;4.90;;;2.60;;
74789;SDS011;63318;52.406;13.416;2023-06-22T08:51:01;4.90;;;2.70;;
74789;SDS011;63318;52.406;13.416;2023-06-22T08:53:30;5.70;;;2.80;;
74789;SDS011;63318;52.406;13.416;2023-06-22T08:55:59;4.30;;;2.40;;
74789;SDS011;63318;52.406;13.416;2023-06-22T08:58:27;4.50;;;2.90;;
74789;SDS011;63318;52.406;13.416;2023-06-22T09:00:56;4.80;;;2.90;;
74789;SDS011;63318;52.406;13.416;2023-06-22T09:03:24;6.70;;;3.00;;
74789;SDS011;63318;52.406;13.416;2023-06-22T09:05:53;5.00;;;2.60;;
74789;SDS011;63318;52.406;13.416;2023-06-22T09:08:21;4.80;;;2.50;;
74789;SDS011;63318;52.406;13.416;2023-06-22T09:10:50;4.60;;;2.20;;
74789;SDS011;63318;52.406;13.416;2023-06-22T09:13:18;5.00;;;2.80;;
74789;SDS011;63318;52.406;13.416;2023-06-22T09:15:46;6.10;;;2.60;;
74789;SDS011;63318;52.406;13.416;2023-06-22T09:18:15;4.70;;;2.50;;
74789;SDS011;63318;52.406;13.416;2023-06-22T09:20:44;4.30;;;2.80;;
74789;SDS011;63318;52.406;13.416;2023-06-22T09:23:13;6.00;;;2.70;;
74789;SDS011;63318;52.406;13.416;2023-06-22T09:25:42;5.00;;;2.50;;
74789;SDS011;63318;52.406;13.416;2023-06-22T09:28:10;6.20;;;3.00;;
74789;SDS011;63318;52.406;13.416;2023-06-22T09:30:38;5.20;;;2.70;;
74789;SDS011;63318;52.406;13.416;2023-06-22T09:33:07;4.80;;;2.50;;
74789;SDS011;63318;52.406;13.416;2023-06-22T09:35:35;6.90;;;2.70;;
74789;SDS011;63318;52.406;13.416;2023-06-22T09:38:03;4.70;;;2.50;;
74789;SDS011;63318;52.406;13.416;2023-06-22T09:40:32;4.40;;;2.40;;
74789;SDS011;63318;52.406;13.416;2023-06-22T09:43:00;4.50;;;2.60;;
74789;SDS011;63318;52.406;13.416;2023-06-22T09:45:28;5.40;;;2.60;;
74789;SDS011;63318;52.406;13.416;2023-06-22T09:47:57;5.60;;;2.70;;
74789;SDS011;63318;52.406;13.416;2023-06-22T09:50:25;4.80;;;2.70;;
74789;SDS011;63318;52.406;13.416;2023-06-22T09:52:53;4.80;;;2.50;;
74789;SDS011;63318;52.406;13.416;2023-06-22T09:55:22;4.80;;;3.10;;
74789;SDS011;63318;52.406;13.416;2023-06-22T09:57:50;4.20;;;2.30;;
74789;SDS011;63318;52.406;13.416;2023-06-22T10:00:19;5.70;;;2.50;;
74789;SDS011;63318;52.406;13.416;2023-06-22T10:02:47;4.50;;;2.40;;
74789;SDS011;63318;52.406;13.416;2023-06-22T10:05:16;5.10;;;2.80;;
74789;SDS011;63318;52.406;13.416;2023-06-22T10:07:45;4.30;;;2.40;;
74789;SDS011;63318;52.406;13.416;2023-06-22T10:10:13;4.20;;;2.50;;
74789;SDS011;63318;52.406;13.416;2023-06-22T10:12:47;4.10;;;2.20;;
74789;SDS011;63318;52.406;13.416;2023-06-22T10:15:23;4.20;;;2.50;;
74789;SDS011;63318;52.406;13.416;2023-06-22T10:17:51;5.30;;;2.40;;
74789;SDS011;63318;52.406;13.416;2023-06-22T10:20:20;4.60;;;2.30;;
74789;SDS011;63318;52.406;13.416;2023-06-22T10:22:49;4.70;;;2.60;;
74789;SDS011;63318;52.406;13.416;2023-06-22T10:25:18;5.50;;;2.40;;
74789;SDS011;63318;52.406;13.416;2023-06-22T10:27:47;5.30;;;2.20;;
74789;SDS011;63318;52.406;13.416;2023-06-22T10:30:16;4.30;;;2.40;;
74789;SDS011;63318;52.406;13.416;2023-06-22T10:32:44;4.00;;;2.30;;
74789;SDS011;63318;52.406;13.416;2023-06-22T10:35:13;5.50;;;2.70;;
74789;SDS011;63318;52.406;13.416;2023-06-22T10:37:41;4.80;;;2.70;;
74789;SDS011;63318;52.406;13.416;2023-06-22T10:40:11;6.10;;;2.40;;
74789;SDS011;63318;52.406;13.416;2023-06-22T10:42:41;5.00;;;2.50;;
74789;SDS011;63318;52.406;13.416;2023-06-22T10:45:10;6.10;;;2.70;;
74789;SDS011;63318;52.406;13.416;2023-06-22T10:47:38;3.80;;;2.20;;
74789;SDS011;63318;52.406;13.416;2023-06-22T10:50:08;5.50;;;2.50;;
74789;SDS011;63318;52.406;13.416;2023-06-22T10:52:37;6.50;;;2.40;;
74789;SDS011;63318;52.406;13.416;2023-06-22T10:55:06;4.10;;;2.10;;
74789;SDS011;63318;52.406;13.416;2023-06-22T10:57:35;4.10;;;2.40;;
74789;SDS011;63318;52.406;13.416;2023-06-22T11:00:04;5.40;;;2.40;;
74789;SDS011;63318;52.406;13.416;2023-06-22T11:02:34;4.50;;;2.50;;
74789;SDS011;63318;52.406;13.416;2023-06-22T11:05:02;4.10;;;2.10;;
74789;SDS011;63318;52.406;13.416;2023-06-22T11:07:32;4.20;;;2.50;;
74789;SDS011;63318;52.406;13.416;2023-06-22T11:10:00;4.70;;;2.70;;
74789;SDS011;63318;52.406;13.416;2023-06-22T11:12:28;4.10;;;2.60;;
74789;SDS011;63318;52.406;13.416;2023-06-22T11:14:57;7.30;;;2.70;;
74789;SDS011;63318;52.406;13.416;2023-06-22T11:17:25;4.30;;;2.70;;
74789;SDS011;63318;52.406;13.416;2023-06-22T11:19:53;3.70;;;2.30;;
74789;SDS011;63318;52.406;13.416;2023-06-22T11:22:21;5.30;;;2.60;;
74789;SDS011;63318;52.406;13.416;2023-06-22T11:24:50;5.10;;;2.80;;
74789;SDS011;63318;52.406;13.416;2023-06-22T11:27:18;4.60;;;2.80;;
74789;SDS011;63318;52.406;13.416;2023-06-22T11:29:46;4.90;;;2.80;;
74789;SDS011;63318;52.406;13.416;2023-06-22T11:32:14;4.60;;;2.90;;
74789;SDS011;63318;52.406;13.416;2023-06-22T11:34:43;4.70;;;2.60;;
74789;SDS011;63318;52.406;13.416;2023-06-22T11:37:11;5.10;;;2.50;;
74789;SDS011;63318;52.406;13.416;2023-06-22T11:39:39;4.40;;;2.90;;
74789;SDS011;63318;52.406;13.416;2023-06-22T11:42:07;8.70;;;2.80;;
74789;SDS011;63318;52.406;13.416;2023-06-22T11:44:36;5.00;;;2.90;;
74789;SDS011;63318;52.406;13.416;2023-06-22T11:47:05;5.30;;;2.90;;
74789;SDS011;63318;52.406;13.416;2023-06-22T11:49:33;3.80;;;2.70;;
74789;SDS011;63318;52.406;13.416;2023-06-22T11:52:01;5.00;;;2.80;;
74789;SDS011;63318;52.406;13.416;2023-06-22T11:54:30;4.80;;;2.70;;
74789;SDS011;63318;52.406;13.416;2023-06-22T11:56:58;4.10;;;2.40;;
74789;SDS011;63318;52.406;13.416;2023-06-22T11:59:27;3.80;;;2.60;;
74789;SDS011;63318;52.406;13.416;2023-06-22T12:01:55;5.30;;;2.90;;
74789;SDS011;63318;52.406;13.416;2023-06-22T12:04:23;4.30;;;2.90;;
74789;SDS011;63318;52.406;13.416;2023-06-22T12:06:51;5.30;;;2.60;;
74789;SDS011;63318;52.406;13.416;2023-06-22T12:09:20;4.50;;;2.70;;
74789;SDS011;63318;52.406;13.416;2023-06-22T12:11:48;5.70;;;3.10;;
74789;SDS011;63318;52.406;13.416;2023-06-22T12:14:16;5.10;;;2.80;;
74789;SDS011;63318;52.406;13.416;2023-06-22T12:16:45;4.60;;;2.60;;
74789;SDS011;63318;52.406;13.416;2023-06-22T12:19:13;4.40;;;2.70;;
74789;SDS011;63318;52.406;13.416;2023-06-22T12:21:41;4.30;;;3.00;;
74789;SDS011;63318;52.406;13.416;2023-06-22T12:24:09;4.10;;;2.80;;
74789;SDS011;63318;52.406;13.416;2023-06-22T12:26:38;4.90;;;2.60;;
74789;SDS011;63318;52.406;13.416;2023-06-22T12:29:06;4.00;;;2.50;;
74789;SDS011;63318;52.406;13.416;2023-06-22T12:31:35;6.20;;;2.90;;
74789;SDS011;63318;52.406;13.416;2023-06-22T12:34:03;4.90;;;2.80;;
74789;SDS011;63318;52.406;13.416;2023-06-22T12:36:32;3.90;;;2.60;;
74789;SDS011;63318;52.406;13.416;2023-06-22T12:39:00;4.90;;;2.90;;
74789;SDS011;63318;52.406;13.416;2023-06-22T12:41:28;5.00;;;2.40;;
74789;SDS011;63318;52.406;13.416;2023-06-22T12:43:56;4.20;;;2.60;;
74789;SDS011;63318;52.406;13.416;2023-06-22T12:46:24;5.80;;;2.70;;
74789;SDS011;63318;52.406;13.416;2023-06-22T12:48:53;5.40;;;2.70;;
74789;SDS011;63318;52.406;13.416;2023-06-22T12:51:21;6.40;;;3.30;;
74789;SDS011;63318;52.406;13.416;2023-06-22T12:53:50;5.30;;;2.70;;
74789;SDS011;63318;52.406;13.416;2023-06-22T12:56:18;5.10;;;3.10;;
74789;SDS011;63318;52.406;13.416;2023-06-22T12:58:46;4.50;;;2.50;;
74789;SDS011;63318;52.406;13.416;2023-06-22T13:01:14;5.30;;;3.30;;
74789;SDS011;63318;52.406;13.416;2023-06-22T13:03:43;4.40;;;3.00;;
74789;SDS011;63318;52.406;13.416;2023-06-22T13:06:11;4.30;;;3.10;;
74789;SDS011;63318;52.406;13.416;2023-06-22T13:08:40;4.30;;;2.80;;
74789;SDS011;63318;52.406;13.416;2023-06-22T13:11:08;5.50;;;3.40;;
74789;SDS011;63318;52.406;13.416;2023-06-22T13:13:37;4.50;;;2.80;;
74789;SDS011;63318;52.406;13.416;2023-06-22T13:16:05;6.70;;;4.00;;
74789;SDS011;63318;52.406;13.416;2023-06-22T13:18:34;7.80;;;3.10;;
74789;SDS011;63318;52.406;13.416;2023-06-22T13:21:03;5.20;;;3.10;;
74789;SDS011;63318;52.406;13.416;2023-06-22T13:23:31;5.60;;;3.60;;
74789;SDS011;63318;52.406;13.416;2023-06-22T13:25:59;4.70;;;3.10;;
74789;SDS011;63318;52.406;13.416;2023-06-22T13:28:28;5.20;;;3.10;;
74789;SDS011;63318;52.406;13.416;2023-06-22T13:30:56;6.50;;;3.10;;
74789;SDS011;63318;52.406;13.416;2023-06-22T13:33:24;5.30;;;3.10;;
74789;SDS011;63318;52.406;13.416;2023-06-22T13:35:52;5.20;;;3.50;;
74789;SDS011;63318;52.406;13.416;2023-06-22T13:38:21;6.20;;;3.20;;
74789;SDS011;63318;52.406;13.416;2023-06-22T13:40:49;4.80;;;3.10;;
74789;SDS011;63318;52.406;13.416;2023-06-22T13:43:17;5.60;;;2.90;;
74789;SDS011;63318;52.406;13.416;2023-06-22T13:45:45;4.80;;;3.20;;
74789;SDS011;63318;52.406;13.416;2023-06-22T13:48:14;5.50;;;3.10;;
74789;SDS011;63318;52.406;13.416;2023-06-22T13:50:43;5.10;;;3.40;;
74789;SDS011;63318;52.406;13.416;2023-06-22T13:53:11;4.50;;;3.30;;
74789;SDS011;63318;52.406;13.416;2023-06-22T13:55:40;4.70;;;3.10;;
74789;SDS011;63318;52.406;13.416;2023-06-22T13:58:08;5.30;;;3.10;;
74789;SDS011;63318;52.406;13.416;2023-06-22T14:00:36;5.30;;;3.40;;
74789;SDS011;63318;52.406;13.416;2023-06-22T14:03:05;5.00;;;3.30;;
74789;SDS011;63318;52.406;13.416;2023-06-22T14:05:33;5.00;;;3.50;;
74789;SDS011;63318;52.406;13.416;2023-06-22T14:08:01;6.60;;;3.30;;
74789;SDS011;63318;52.406;13.416;2023-06-22T14:10:30;5.80;;;2.90;;
74789;SDS011;63318;52.406;13.416;2023-06-22T14:12:58;4.80;;;3.30;;
74789;SDS011;63318;52.406;13.416;2023-06-22T14:15:26;4.90;;;2.90;;
74789;SDS011;63318;52.406;13.416;2023-06-22T14:17:55;4.70;;;3.20;;
74789;SDS011;63318;52.406;13.416;2023-06-22T14:20:23;4.30;;;2.90;;
74789;SDS011;63318;52.406;13.416;2023-06-22T14:22:51;4.60;;;3.00;;
74789;SDS011;63318;52.406;13.416;2023-06-22T14:25:20;4.90;;;3.10;;
74789;SDS011;63318;52.406;13.416;2023-06-22T14:27:48;5.20;;;3.60;;
74789;SDS011;63318;52.406;13.416;2023-06-22T14:30:16;5.30;;;3.40;;
74789;SDS011;63318;52.406;13.416;2023-06-22T14:32:45;5.70;;;3.40;;
74789;SDS011;63318;52.406;13.416;2023-06-22T14:35:14;7.20;;;3.30;;
74789;SDS011;63318;52.406;13.416;2023-06-22T14:37:43;5.50;;;3.20;;